createdAt,value
2022-11-09T00:01:21.905Z,10.20
2022-11-09T00:06:24.821Z,14.57
2022-11-09T00:11:26.569Z,9.65
2022-11-09T00:16:28.306Z,15.80
2022-11-09T00:21:29.987Z,12.32
2022-11-09T00:26:31.760Z,9.18
2022-11-09T00:31:34.300Z,8.93
2022-11-09T00:36:35.973Z,10.05
2022-11-09T00:41:37.678Z,8.20
2022-11-09T00:46:39.416Z,8.85
2022-11-09T00:51:41.260Z,8.25
2022-11-09T00:56:43.346Z,8.00
2022-11-09T01:01:45.785Z,9.80
2022-11-09T01:06:47.516Z,13.35
2022-11-09T01:11:49.336Z,14.68
2022-11-09T01:16:51.495Z,10.80
2022-11-09T01:21:53.372Z,14.88
2022-11-09T01:26:55.823Z,10.60
2022-11-09T01:31:57.480Z,8.75
2022-11-09T01:36:59.776Z,16.42
2022-11-09T01:42:04.439Z,13.32
2022-11-09T01:47:14.880Z,16.60
2022-11-09T01:52:25.856Z,14.07
2022-11-09T01:57:40.019Z,13.02
2022-11-09T02:02:47.953Z,13.45
2022-11-09T02:07:51.954Z,14.05
2022-11-09T02:12:58.440Z,24.02
2022-11-09T02:18:00.491Z,16.73
2022-11-09T02:23:02.367Z,15.48
2022-11-09T02:28:04.913Z,20.67
2022-11-09T02:33:06.701Z,18.45
2022-11-09T02:38:13.676Z,17.05
2022-11-09T02:43:16.510Z,18.02
2022-11-09T02:48:19.595Z,19.13
2022-11-09T02:53:21.753Z,22.67
2022-11-09T02:58:23.679Z,16.27
2022-11-09T03:03:25.464Z,23.35
2022-11-09T03:08:27.253Z,23.85
2022-11-09T03:13:29.311Z,19.90
2022-11-09T03:18:31.487Z,24.55
2022-11-09T03:23:33.938Z,22.05
2022-11-09T03:28:37.023Z,19.00
2022-11-09T03:33:39.199Z,20.80
2022-11-09T03:38:41.396Z,23.52
2022-11-09T03:43:43.240Z,25.00
2022-11-09T03:48:44.897Z,24.63
2022-11-09T03:53:46.587Z,25.70
2022-11-09T03:58:48.893Z,22.63
2022-11-09T04:03:50.578Z,22.50
2022-11-09T04:08:52.278Z,22.83
2022-11-09T04:13:54.137Z,22.45
2022-11-09T04:18:55.835Z,22.20
2022-11-09T04:23:57.578Z,23.42
2022-11-09T04:28:59.248Z,31.77
2022-11-09T04:34:00.975Z,26.20
2022-11-09T04:39:02.674Z,21.52
2022-11-09T04:44:04.648Z,25.20
2022-11-09T04:49:06.445Z,28.05
2022-11-09T04:54:08.128Z,25.52
2022-11-09T04:59:09.927Z,22.25
2022-11-09T05:04:11.745Z,21.98
2022-11-09T05:09:13.481Z,28.02
2022-11-09T05:14:15.252Z,23.23
2022-11-09T05:19:16.994Z,29.02
2022-11-09T05:24:18.664Z,27.98
2022-11-09T05:29:20.336Z,26.67
2022-11-09T05:34:22.004Z,26.45
2022-11-09T05:39:23.663Z,27.02
2022-11-09T05:44:25.757Z,25.80
2022-11-09T05:49:27.477Z,25.50
2022-11-09T05:54:29.147Z,19.20
2022-11-09T05:59:30.836Z,24.02
2022-11-09T06:04:32.516Z,23.75
2022-11-09T06:09:34.205Z,22.40
2022-11-09T06:14:35.880Z,24.48
2022-11-09T06:19:37.572Z,22.98
2022-11-09T06:24:39.302Z,19.92
2022-11-09T06:29:40.995Z,23.08
2022-11-09T06:34:44.373Z,20.45
2022-11-09T06:39:47.647Z,26.38
2022-11-09T06:44:49.351Z,25.17
2022-11-09T06:49:51.071Z,23.85
2022-11-09T06:54:52.763Z,25.42
2022-11-09T06:59:54.449Z,23.17
2022-11-09T07:04:56.330Z,31.35
2022-11-09T07:09:58.319Z,18.02
2022-11-09T07:15:00.238Z,21.55
2022-11-09T07:20:02.043Z,21.77
2022-11-09T07:25:04.069Z,19.88
2022-11-09T07:30:06.624Z,24.98
2022-11-09T07:35:09.947Z,22.40
2022-11-09T07:40:12.499Z,22.88
2022-11-09T07:45:14.389Z,22.70
2022-11-09T07:50:16.316Z,21.75
2022-11-09T07:55:18.671Z,20.92
2022-11-09T08:00:23.641Z,31.52
2022-11-09T08:05:26.412Z,21.30
2022-11-09T08:10:29.545Z,21.15
2022-11-09T08:15:31.844Z,24.20
2022-11-09T08:20:34.405Z,23.42
2022-11-09T08:25:36.443Z,24.30
2022-11-09T08:30:38.133Z,23.00
2022-11-09T08:35:39.928Z,20.67
2022-11-09T08:40:41.608Z,18.45
2022-11-09T08:45:43.285Z,15.88
2022-11-09T08:50:44.981Z,37.17
2022-11-09T08:55:49.522Z,24.17
2022-11-09T09:00:51.703Z,23.45
2022-11-09T09:05:53.377Z,14.63
2022-11-09T09:10:55.057Z,16.08
2022-11-09T09:15:56.914Z,21.92
2022-11-09T09:20:58.616Z,15.35
2022-11-09T09:26:00.408Z,24.98
2022-11-09T09:31:02.463Z,22.38
2022-11-09T09:36:04.848Z,22.30
2022-11-09T09:41:07.874Z,20.27
2022-11-09T09:46:24.908Z,16.50
2022-11-09T09:51:42.786Z,24.08
2022-11-09T09:56:46.929Z,18.60
2022-11-09T10:01:50.926Z,16.42
2022-11-09T10:07:02.269Z,19.73
2022-11-09T10:12:12.258Z,21.17
2022-11-09T10:17:37.319Z,15.30
2022-11-09T10:22:41.713Z,14.20
2022-11-09T10:27:53.827Z,19.13
2022-11-09T10:33:11.950Z,17.58
2022-11-09T10:38:21.207Z,16.27
2022-11-09T10:43:41.886Z,13.40
2022-11-09T10:49:20.017Z,15.35
2022-11-09T10:54:40.301Z,14.98
2022-11-09T11:00:01.073Z,15.35
2022-11-09T11:05:25.708Z,15.75
2022-11-09T11:10:46.126Z,18.48
2022-11-09T11:16:18.671Z,12.95
2022-11-09T11:21:38.567Z,57.50
2022-11-09T11:27:10.528Z,18.50
2022-11-09T11:32:31.408Z,18.02
2022-11-09T11:38:27.742Z,13.45
2022-11-09T11:43:53.965Z,23.35
2022-11-09T11:49:17.514Z,12.30
2022-11-09T11:54:57.130Z,16.48
2022-11-09T12:00:20.174Z,13.35
2022-11-09T12:05:46.501Z,10.80
2022-11-09T12:11:12.808Z,17.55
2022-11-09T12:16:42.046Z,18.25
2022-11-09T12:22:13.315Z,11.45
2022-11-09T12:27:51.153Z,14.75
2022-11-09T12:33:23.964Z,13.15
2022-11-09T12:39:05.572Z,14.73
2022-11-09T12:44:30.460Z,15.25
2022-11-09T12:49:51.135Z,17.60
2022-11-09T12:55:15.645Z,11.40
2022-11-09T13:00:35.822Z,14.88
2022-11-09T13:06:16.824Z,13.05
2022-11-09T13:11:43.975Z,10.00
2022-11-09T13:17:23.694Z,12.23
2022-11-09T13:22:44.136Z,12.80
2022-11-09T13:28:24.353Z,11.02
2022-11-09T13:33:44.960Z,11.18
2022-11-09T13:39:29.698Z,10.48
2022-11-09T13:44:50.174Z,9.15
2022-11-09T13:50:39.448Z,9.13
2022-11-09T13:56:22.486Z,9.85
2022-11-09T14:01:59.791Z,11.52
2022-11-09T14:07:24.693Z,9.43
2022-11-09T14:13:03.879Z,10.23
2022-11-09T14:18:41.047Z,11.85
2022-11-09T14:24:19.163Z,13.23
2022-11-09T14:29:54.531Z,11.90
2022-11-09T14:35:25.863Z,15.15
2022-11-09T14:40:48.323Z,11.13
2022-11-09T14:46:18.400Z,11.07
2022-11-09T14:51:40.394Z,9.60
2022-11-09T14:57:01.077Z,10.05
2022-11-09T15:02:23.615Z,21.10
2022-11-09T15:07:48.240Z,23.17
2022-11-09T15:13:08.685Z,20.60
2022-11-09T15:18:34.381Z,22.60
2022-11-09T15:24:09.717Z,26.05
2022-11-09T15:29:40.938Z,25.52
2022-11-09T15:35:01.299Z,28.58
2022-11-09T15:40:25.006Z,30.97
2022-11-09T15:45:45.062Z,24.10
2022-11-09T15:51:05.413Z,27.52
2022-11-09T15:56:25.811Z,32.75
2022-11-09T16:01:46.074Z,32.58
2022-11-09T16:07:07.431Z,28.92
2022-11-09T16:12:27.563Z,24.90
2022-11-09T16:17:50.315Z,27.55
2022-11-09T16:23:10.305Z,31.42
2022-11-09T16:28:30.736Z,32.25
2022-11-09T16:33:50.896Z,25.52
2022-11-09T16:39:17.237Z,26.10
2022-11-09T16:44:41.559Z,41.33
2022-11-09T16:50:01.487Z,31.60
2022-11-09T16:55:21.830Z,31.50
2022-11-09T17:06:27.251Z,28.35
2022-11-09T17:11:47.627Z,27.80
2022-11-09T17:17:07.878Z,30.35
2022-11-09T17:22:28.173Z,28.60
2022-11-09T17:27:48.424Z,35.92
2022-11-09T17:33:08.612Z,29.88
2022-11-09T17:38:30.124Z,30.10
2022-11-09T17:43:50.589Z,31.23
2022-11-09T17:49:10.990Z,33.08
2022-11-09T17:54:36.476Z,28.48
2022-11-09T17:59:57.383Z,28.58
2022-11-09T18:05:17.479Z,34.28
2022-11-09T18:10:39.363Z,30.52
2022-11-09T18:16:09.459Z,33.80
2022-11-09T18:21:33.567Z,32.58
2022-11-09T18:26:54.123Z,33.03
2022-11-09T18:32:14.420Z,34.58
2022-11-09T18:37:38.319Z,37.58
2022-11-09T18:43:00.356Z,34.28
2022-11-09T18:48:20.728Z,37.05
2022-11-09T18:53:43.074Z,35.10
2022-11-09T18:59:03.186Z,42.25
2022-11-09T19:04:23.519Z,31.35
2022-11-09T19:09:43.980Z,41.70
2022-11-09T19:15:04.608Z,37.35
2022-11-09T19:20:24.564Z,38.00
2022-11-09T19:25:44.943Z,38.55
2022-11-09T19:31:05.233Z,40.50
2022-11-09T19:36:30.630Z,37.20
2022-11-09T19:41:51.754Z,35.95
2022-11-09T19:47:12.312Z,35.42
2022-11-09T19:52:32.679Z,37.97
2022-11-09T19:57:52.802Z,33.63
2022-11-09T20:03:12.918Z,36.85
2022-11-09T20:08:37.655Z,31.33
2022-11-09T20:13:57.656Z,32.45
2022-11-09T20:19:17.860Z,41.45
2022-11-09T20:24:38.322Z,36.38
2022-11-09T20:29:58.619Z,30.48
2022-11-09T20:35:18.925Z,29.40
2022-11-09T20:40:39.136Z,24.50
2022-11-09T20:46:04.388Z,15.48
2022-11-09T20:51:24.606Z,17.33
2022-11-09T20:56:45.595Z,19.85
2022-11-09T21:02:05.831Z,10.50
2022-11-09T21:07:26.120Z,8.60
2022-11-09T21:12:46.262Z,9.50
2022-11-09T21:18:07.566Z,9.35
2022-11-09T21:23:27.601Z,9.68
2022-11-09T21:29:06.443Z,7.47
2022-11-09T21:34:31.472Z,10.70
2022-11-09T21:39:54.587Z,6.88
2022-11-09T21:45:14.923Z,6.95
2022-11-09T21:50:35.221Z,9.68
2022-11-09T21:55:55.413Z,5.88
2022-11-09T22:01:18.099Z,8.43
2022-11-09T22:06:40.533Z,9.10
2022-11-09T22:12:19.593Z,6.32
2022-11-09T22:17:39.558Z,8.07
2022-11-09T22:22:59.751Z,9.18
2022-11-09T22:28:20.099Z,7.47
2022-11-09T22:33:40.450Z,3.40
2022-11-09T22:39:00.950Z,6.20
2022-11-09T22:44:21.146Z,6.10
2022-11-09T22:49:41.450Z,4.88
2022-11-09T22:55:01.703Z,8.27
2022-11-09T23:00:22.170Z,6.15
2022-11-09T23:05:42.114Z,6.47
2022-11-09T23:11:02.416Z,4.43
2022-11-09T23:16:23.518Z,3.28
2022-11-09T23:21:43.703Z,4.72
2022-11-09T23:27:03.901Z,3.58
2022-11-09T23:32:24.195Z,2.97
2022-11-09T23:37:44.429Z,4.07
2022-11-09T23:43:07.791Z,6.03
2022-11-09T23:48:28.124Z,1.33
2022-11-09T23:53:48.416Z,3.08
2022-11-09T23:59:08.588Z,3.35
